sensor_id;sensor_type;location;lat;lon;timestamp;temperature;humidity
39067;DHT22;24821;51.988;6.020;2023-06-14T00:00:38;20.00;58.60
39067;DHT22;24821;51.988;6.020;2023-06-14T00:03:07;20.00;58.70
39067;DHT22;24821;51.988;6.020;2023-06-14T00:05:37;20.00;58.90
39067;DHT22;24821;51.988;6.020;2023-06-14T00:08:09;19.90;59.30
39067;DHT22;24821;51.988;6.020;2023-06-14T00:10:37;19.90;59.00
39067;DHT22;24821;51.988;6.020;2023-06-14T00:13:04;19.80;59.10
39067;DHT22;24821;51.988;6.020;2023-06-14T00:15:33;19.80;59.10
39067;DHT22;24821;51.988;6.020;2023-06-14T00:17:59;19.80;59.10
39067;DHT22;24821;51.988;6.020;2023-06-14T00:20:26;19.80;59.40
39067;DHT22;24821;51.988;6.020;2023-06-14T00:22:52;19.70;59.40
39067;DHT22;24821;51.988;6.020;2023-06-14T00:25:17;19.70;59.40
39067;DHT22;24821;51.988;6.020;2023-06-14T00:27:43;19.70;59.40
39067;DHT22;24821;51.988;6.020;2023-06-14T00:30:09;19.70;59.60
39067;DHT22;24821;51.988;6.020;2023-06-14T00:32:35;19.60;59.80
39067;DHT22;24821;51.988;6.020;2023-06-14T00:35:00;19.60;60.00
39067;DHT22;24821;51.988;6.020;2023-06-14T00:37:26;19.60;60.00
39067;DHT22;24821;51.988;6.020;2023-06-14T00:39:51;19.50;60.00
39067;DHT22;24821;51.988;6.020;2023-06-14T00:42:26;19.60;60.30
39067;DHT22;24821;51.988;6.020;2023-06-14T00:44:52;19.50;60.40
39067;DHT22;24821;51.988;6.020;2023-06-14T00:47:18;19.50;60.60
39067;DHT22;24821;51.988;6.020;2023-06-14T00:49:51;19.50;60.70
39067;DHT22;24821;51.988;6.020;2023-06-14T00:52:18;19.50;60.70
39067;DHT22;24821;51.988;6.020;2023-06-14T00:54:44;19.40;61.00
39067;DHT22;24821;51.988;6.020;2023-06-14T00:57:10;19.40;61.40
39067;DHT22;24821;51.988;6.020;2023-06-14T00:59:47;19.40;61.60
39067;DHT22;24821;51.988;6.020;2023-06-14T01:02:13;19.30;61.70
39067;DHT22;24821;51.988;6.020;2023-06-14T01:04:40;19.30;61.90
39067;DHT22;24821;51.988;6.020;2023-06-14T01:10:35;19.20;62.00
39067;DHT22;24821;51.988;6.020;2023-06-14T01:15:31;19.00;62.30
39067;DHT22;24821;51.988;6.020;2023-06-14T01:17:57;19.00;62.70
39067;DHT22;24821;51.988;6.020;2023-06-14T01:20:29;19.00;62.70
39067;DHT22;24821;51.988;6.020;2023-06-14T01:22:56;19.00;62.70
39067;DHT22;24821;51.988;6.020;2023-06-14T01:25:22;18.90;62.80
39067;DHT22;24821;51.988;6.020;2023-06-14T01:27:49;18.90;62.90
39067;DHT22;24821;51.988;6.020;2023-06-14T01:30:17;18.90;63.00
39067;DHT22;24821;51.988;6.020;2023-06-14T01:32:44;18.80;63.40
39067;DHT22;24821;51.988;6.020;2023-06-14T01:35:10;18.80;63.70
39067;DHT22;24821;51.988;6.020;2023-06-14T01:37:36;18.80;63.50
39067;DHT22;24821;51.988;6.020;2023-06-14T01:40:04;18.70;63.80
39067;DHT22;24821;51.988;6.020;2023-06-14T01:42:33;18.70;63.90
39067;DHT22;24821;51.988;6.020;2023-06-14T01:45:02;18.70;63.90
39067;DHT22;24821;51.988;6.020;2023-06-14T01:47:29;18.60;64.00
39067;DHT22;24821;51.988;6.020;2023-06-14T01:49:55;18.60;64.60
39067;DHT22;24821;51.988;6.020;2023-06-14T01:52:20;18.60;64.20
39067;DHT22;24821;51.988;6.020;2023-06-14T01:54:47;18.60;64.40
39067;DHT22;24821;51.988;6.020;2023-06-14T01:57:15;18.50;64.80
39067;DHT22;24821;51.988;6.020;2023-06-14T01:59:40;18.50;64.70
39067;DHT22;24821;51.988;6.020;2023-06-14T02:02:06;18.50;64.90
39067;DHT22;24821;51.988;6.020;2023-06-14T02:04:32;18.40;65.00
39067;DHT22;24821;51.988;6.020;2023-06-14T02:06:57;18.40;65.10
39067;DHT22;24821;51.988;6.020;2023-06-14T02:09:23;18.30;65.30
39067;DHT22;24821;51.988;6.020;2023-06-14T02:11:49;18.30;65.30
39067;DHT22;24821;51.988;6.020;2023-06-14T02:14:14;18.30;65.50
39067;DHT22;24821;51.988;6.020;2023-06-14T02:16:42;18.30;65.50
39067;DHT22;24821;51.988;6.020;2023-06-14T02:19:17;18.20;65.60
39067;DHT22;24821;51.988;6.020;2023-06-14T02:21:43;18.30;66.20
39067;DHT22;24821;51.988;6.020;2023-06-14T02:24:09;18.20;65.70
39067;DHT22;24821;51.988;6.020;2023-06-14T02:26:35;18.20;65.80
39067;DHT22;24821;51.988;6.020;2023-06-14T02:29:06;18.20;65.90
39067;DHT22;24821;51.988;6.020;2023-06-14T02:31:35;18.10;66.10
39067;DHT22;24821;51.988;6.020;2023-06-14T02:34:00;18.10;66.20
39067;DHT22;24821;51.988;6.020;2023-06-14T02:36:26;18.20;66.30
39067;DHT22;24821;51.988;6.020;2023-06-14T02:38:52;18.10;66.50
39067;DHT22;24821;51.988;6.020;2023-06-14T02:41:19;18.10;66.70
39067;DHT22;24821;51.988;6.020;2023-06-14T02:43:45;18.00;66.70
39067;DHT22;24821;51.988;6.020;2023-06-14T02:46:10;18.00;67.00
39067;DHT22;24821;51.988;6.020;2023-06-14T02:48:36;18.00;66.80
39067;DHT22;24821;51.988;6.020;2023-06-14T02:51:02;17.90;67.00
39067;DHT22;24821;51.988;6.020;2023-06-14T02:53:28;17.90;67.10
39067;DHT22;24821;51.988;6.020;2023-06-14T02:55:53;17.90;67.20
39067;DHT22;24821;51.988;6.020;2023-06-14T02:58:21;17.80;67.50
39067;DHT22;24821;51.988;6.020;2023-06-14T03:00:46;17.80;67.50
39067;DHT22;24821;51.988;6.020;2023-06-14T03:03:12;17.80;67.50
39067;DHT22;24821;51.988;6.020;2023-06-14T03:05:45;17.80;67.50
39067;DHT22;24821;51.988;6.020;2023-06-14T03:08:15;17.80;67.80
39067;DHT22;24821;51.988;6.020;2023-06-14T03:10:43;17.70;67.90
39067;DHT22;24821;51.988;6.020;2023-06-14T03:13:09;17.80;68.10
39067;DHT22;24821;51.988;6.020;2023-06-14T03:15:36;17.70;68.70
39067;DHT22;24821;51.988;6.020;2023-06-14T03:18:01;17.70;68.20
39067;DHT22;24821;51.988;6.020;2023-06-14T03:20:29;17.60;68.30
39067;DHT22;24821;51.988;6.020;2023-06-14T03:22:55;17.60;68.40
39067;DHT22;24821;51.988;6.020;2023-06-14T03:25:21;17.60;68.60
39067;DHT22;24821;51.988;6.020;2023-06-14T03:27:47;17.60;68.60
39067;DHT22;24821;51.988;6.020;2023-06-14T03:30:13;17.60;68.80
39067;DHT22;24821;51.988;6.020;2023-06-14T03:32:39;17.50;68.80
39067;DHT22;24821;51.988;6.020;2023-06-14T03:35:05;17.50;69.00
39067;DHT22;24821;51.988;6.020;2023-06-14T03:37:30;17.50;69.20
39067;DHT22;24821;51.988;6.020;2023-06-14T03:39:56;17.50;69.50
39067;DHT22;24821;51.988;6.020;2023-06-14T03:42:22;17.50;69.50
39067;DHT22;24821;51.988;6.020;2023-06-14T03:44:47;17.40;69.70
39067;DHT22;24821;51.988;6.020;2023-06-14T03:47:13;17.40;70.00
39067;DHT22;24821;51.988;6.020;2023-06-14T03:49:38;17.40;69.90
39067;DHT22;24821;51.988;6.020;2023-06-14T03:52:04;17.40;70.00
39067;DHT22;24821;51.988;6.020;2023-06-14T03:54:30;17.40;70.20
39067;DHT22;24821;51.988;6.020;2023-06-14T03:56:58;17.40;70.30
39067;DHT22;24821;51.988;6.020;2023-06-14T03:59:24;17.40;70.30
39067;DHT22;24821;51.988;6.020;2023-06-14T04:01:51;17.40;70.40
39067;DHT22;24821;51.988;6.020;2023-06-14T04:04:16;17.40;70.50
39067;DHT22;24821;51.988;6.020;2023-06-14T04:06:42;17.40;70.60
39067;DHT22;24821;51.988;6.020;2023-06-14T04:09:08;17.40;70.90
39067;DHT22;24821;51.988;6.020;2023-06-14T04:11:34;17.40;70.70
39067;DHT22;24821;51.988;6.020;2023-06-14T04:14:01;17.40;70.80
39067;DHT22;24821;51.988;6.020;2023-06-14T04:16:27;17.40;71.20
39067;DHT22;24821;51.988;6.020;2023-06-14T04:18:56;17.40;71.20
39067;DHT22;24821;51.988;6.020;2023-06-14T04:21:23;17.40;71.40
39067;DHT22;24821;51.988;6.020;2023-06-14T04:23:49;17.40;71.50
39067;DHT22;24821;51.988;6.020;2023-06-14T04:26:18;17.40;71.60
39067;DHT22;24821;51.988;6.020;2023-06-14T04:28:45;17.40;71.60
39067;DHT22;24821;51.988;6.020;2023-06-14T04:31:11;17.40;71.40
39067;DHT22;24821;51.988;6.020;2023-06-14T04:33:37;17.50;71.70
39067;DHT22;24821;51.988;6.020;2023-06-14T04:36:12;17.40;71.70
39067;DHT22;24821;51.988;6.020;2023-06-14T04:38:39;17.50;71.80
39067;DHT22;24821;51.988;6.020;2023-06-14T04:41:04;17.50;71.90
39067;DHT22;24821;51.988;6.020;2023-06-14T04:43:31;17.50;72.00
39067;DHT22;24821;51.988;6.020;2023-06-14T04:46:02;17.50;72.10
39067;DHT22;24821;51.988;6.020;2023-06-14T04:48:28;17.50;72.40
39067;DHT22;24821;51.988;6.020;2023-06-14T04:50:54;17.50;71.90
39067;DHT22;24821;51.988;6.020;2023-06-14T04:53:20;17.60;72.00
39067;DHT22;24821;51.988;6.020;2023-06-14T04:55:47;17.60;71.90
39067;DHT22;24821;51.988;6.020;2023-06-14T04:58:13;17.60;71.50
39067;DHT22;24821;51.988;6.020;2023-06-14T05:00:39;17.60;71.90
39067;DHT22;24821;51.988;6.020;2023-06-14T05:03:04;17.60;71.50
39067;DHT22;24821;51.988;6.020;2023-06-14T05:05:31;17.70;71.60
39067;DHT22;24821;51.988;6.020;2023-06-14T05:07:57;17.70;71.80
39067;DHT22;24821;51.988;6.020;2023-06-14T05:10:24;17.90;71.40
39067;DHT22;24821;51.988;6.020;2023-06-14T05:12:50;18.00;71.10
39067;DHT22;24821;51.988;6.020;2023-06-14T05:15:15;18.10;71.30
39067;DHT22;24821;51.988;6.020;2023-06-14T05:17:41;18.10;71.30
39067;DHT22;24821;51.988;6.020;2023-06-14T05:20:07;18.10;71.50
39067;DHT22;24821;51.988;6.020;2023-06-14T05:22:35;18.20;71.40
39067;DHT22;24821;51.988;6.020;2023-06-14T05:25:01;18.20;71.30
39067;DHT22;24821;51.988;6.020;2023-06-14T05:27:27;18.20;71.40
39067;DHT22;24821;51.988;6.020;2023-06-14T05:29:52;18.30;71.20
39067;DHT22;24821;51.988;6.020;2023-06-14T05:32:21;18.40;71.00
39067;DHT22;24821;51.988;6.020;2023-06-14T05:34:46;18.40;71.40
39067;DHT22;24821;51.988;6.020;2023-06-14T05:37:12;18.40;71.60
39067;DHT22;24821;51.988;6.020;2023-06-14T05:39:38;18.50;71.60
39067;DHT22;24821;51.988;6.020;2023-06-14T05:42:04;18.60;71.60
39067;DHT22;24821;51.988;6.020;2023-06-14T05:44:29;18.70;71.80
39067;DHT22;24821;51.988;6.020;2023-06-14T05:46:55;18.70;71.60
39067;DHT22;24821;51.988;6.020;2023-06-14T05:49:21;18.70;71.40
39067;DHT22;24821;51.988;6.020;2023-06-14T05:51:46;18.70;71.30
39067;DHT22;24821;51.988;6.020;2023-06-14T05:54:12;18.80;71.50
39067;DHT22;24821;51.988;6.020;2023-06-14T05:56:37;18.80;72.00
39067;DHT22;24821;51.988;6.020;2023-06-14T05:59:03;18.90;72.00
39067;DHT22;24821;51.988;6.020;2023-06-14T06:01:28;18.90;71.80
39067;DHT22;24821;51.988;6.020;2023-06-14T06:03:54;18.90;71.60
39067;DHT22;24821;51.988;6.020;2023-06-14T06:06:19;19.00;71.50
39067;DHT22;24821;51.988;6.020;2023-06-14T06:08:45;19.10;71.80
39067;DHT22;24821;51.988;6.020;2023-06-14T06:11:11;19.20;71.60
39067;DHT22;24821;51.988;6.020;2023-06-14T06:13:37;19.60;71.20
39067;DHT22;24821;51.988;6.020;2023-06-14T06:16:04;20.40;69.20
39067;DHT22;24821;51.988;6.020;2023-06-14T06:18:30;21.10;67.30
39067;DHT22;24821;51.988;6.020;2023-06-14T06:20:55;21.80;65.90
39067;DHT22;24821;51.988;6.020;2023-06-14T06:23:21;22.30;64.10
39067;DHT22;24821;51.988;6.020;2023-06-14T06:25:46;22.70;62.60
39067;DHT22;24821;51.988;6.020;2023-06-14T06:28:12;22.80;61.90
39067;DHT22;24821;51.988;6.020;2023-06-14T06:30:38;22.60;62.20
39067;DHT22;24821;51.988;6.020;2023-06-14T06:33:04;22.50;62.70
39067;DHT22;24821;51.988;6.020;2023-06-14T06:35:29;22.50;63.70
39067;DHT22;24821;51.988;6.020;2023-06-14T06:37:56;22.60;63.40
39067;DHT22;24821;51.988;6.020;2023-06-14T06:40:21;22.80;62.30
39067;DHT22;24821;51.988;6.020;2023-06-14T06:42:47;22.90;61.90
39067;DHT22;24821;51.988;6.020;2023-06-14T06:45:12;22.80;61.20
39067;DHT22;24821;51.988;6.020;2023-06-14T06:47:38;22.80;62.50
39067;DHT22;24821;51.988;6.020;2023-06-14T06:50:04;22.80;63.10
39067;DHT22;24821;51.988;6.020;2023-06-14T06:52:31;22.70;62.70
39067;DHT22;24821;51.988;6.020;2023-06-14T06:54:57;22.60;63.20
39067;DHT22;24821;51.988;6.020;2023-06-14T06:57:22;22.50;63.50
39067;DHT22;24821;51.988;6.020;2023-06-14T06:59:49;22.40;63.80
39067;DHT22;24821;51.988;6.020;2023-06-14T07:02:15;22.40;64.90
39067;DHT22;24821;51.988;6.020;2023-06-14T07:04:40;22.40;64.90
39067;DHT22;24821;51.988;6.020;2023-06-14T07:07:06;22.30;64.70
39067;DHT22;24821;51.988;6.020;2023-06-14T07:09:32;22.30;64.80
39067;DHT22;24821;51.988;6.020;2023-06-14T07:11:57;22.30;64.20
39067;DHT22;24821;51.988;6.020;2023-06-14T07:14:23;22.30;63.20
39067;DHT22;24821;51.988;6.020;2023-06-14T07:16:49;22.30;63.80
39067;DHT22;24821;51.988;6.020;2023-06-14T07:19:15;22.30;64.10
39067;DHT22;24821;51.988;6.020;2023-06-14T07:21:41;22.40;63.90
39067;DHT22;24821;51.988;6.020;2023-06-14T07:24:06;22.60;62.80
39067;DHT22;24821;51.988;6.020;2023-06-14T07:26:33;22.90;63.50
39067;DHT22;24821;51.988;6.020;2023-06-14T07:28:59;23.40;63.20
39067;DHT22;24821;51.988;6.020;2023-06-14T07:31:24;23.90;61.70
39067;DHT22;24821;51.988;6.020;2023-06-14T07:33:50;24.30;59.00
39067;DHT22;24821;51.988;6.020;2023-06-14T07:36:15;24.70;58.50
39067;DHT22;24821;51.988;6.020;2023-06-14T07:38:43;25.00;57.50
39067;DHT22;24821;51.988;6.020;2023-06-14T07:41:08;25.30;58.60
39067;DHT22;24821;51.988;6.020;2023-06-14T07:43:34;25.70;57.20
39067;DHT22;24821;51.988;6.020;2023-06-14T07:46:00;25.90;57.20
39067;DHT22;24821;51.988;6.020;2023-06-14T07:48:25;26.20;56.20
39067;DHT22;24821;51.988;6.020;2023-06-14T07:50:51;26.40;54.60
39067;DHT22;24821;51.988;6.020;2023-06-14T07:53:17;26.60;54.00
39067;DHT22;24821;51.988;6.020;2023-06-14T07:55:42;26.70;52.70
39067;DHT22;24821;51.988;6.020;2023-06-14T07:58:08;26.80;53.60
39067;DHT22;24821;51.988;6.020;2023-06-14T08:00:34;27.00;53.50
39067;DHT22;24821;51.988;6.020;2023-06-14T08:03:00;27.10;52.90
39067;DHT22;24821;51.988;6.020;2023-06-14T08:05:26;27.30;53.20
39067;DHT22;24821;51.988;6.020;2023-06-14T08:07:52;27.40;52.80
39067;DHT22;24821;51.988;6.020;2023-06-14T08:10:18;27.60;53.60
39067;DHT22;24821;51.988;6.020;2023-06-14T08:12:43;27.70;51.40
39067;DHT22;24821;51.988;6.020;2023-06-14T08:15:09;27.80;52.50
39067;DHT22;24821;51.988;6.020;2023-06-14T08:17:35;27.90;52.10
39067;DHT22;24821;51.988;6.020;2023-06-14T08:20:02;28.00;51.60
39067;DHT22;24821;51.988;6.020;2023-06-14T08:22:28;28.20;52.60
39067;DHT22;24821;51.988;6.020;2023-06-14T08:24:57;28.20;50.10
39067;DHT22;24821;51.988;6.020;2023-06-14T08:27:23;28.20;50.80
39067;DHT22;24821;51.988;6.020;2023-06-14T08:29:48;28.30;50.70
39067;DHT22;24821;51.988;6.020;2023-06-14T08:32:14;28.40;51.20
39067;DHT22;24821;51.988;6.020;2023-06-14T08:34:39;28.50;51.20
39067;DHT22;24821;51.988;6.020;2023-06-14T08:37:05;28.70;52.70
39067;DHT22;24821;51.988;6.020;2023-06-14T08:39:31;29.00;50.90
39067;DHT22;24821;51.988;6.020;2023-06-14T08:41:57;29.10;50.10
39067;DHT22;24821;51.988;6.020;2023-06-14T08:44:23;29.10;48.50
39067;DHT22;24821;51.988;6.020;2023-06-14T08:46:50;28.90;48.30
39067;DHT22;24821;51.988;6.020;2023-06-14T08:49:17;29.00;49.80
39067;DHT22;24821;51.988;6.020;2023-06-14T08:51:43;29.20;49.80
39067;DHT22;24821;51.988;6.020;2023-06-14T08:54:11;29.40;49.60
39067;DHT22;24821;51.988;6.020;2023-06-14T08:56:40;29.60;50.50
39067;DHT22;24821;51.988;6.020;2023-06-14T08:59:08;29.80;48.80
39067;DHT22;24821;51.988;6.020;2023-06-14T09:01:36;30.00;50.00
39067;DHT22;24821;51.988;6.020;2023-06-14T09:04:03;30.10;48.80
39067;DHT22;24821;51.988;6.020;2023-06-14T09:06:31;30.30;50.10
39067;DHT22;24821;51.988;6.020;2023-06-14T09:08:57;30.30;48.30
39067;DHT22;24821;51.988;6.020;2023-06-14T09:11:23;30.20;47.40
39067;DHT22;24821;51.988;6.020;2023-06-14T09:13:49;29.90;47.60
39067;DHT22;24821;51.988;6.020;2023-06-14T09:16:15;29.70;48.30
39067;DHT22;24821;51.988;6.020;2023-06-14T09:18:43;29.70;48.50
39067;DHT22;24821;51.988;6.020;2023-06-14T09:21:10;29.60;48.30
39067;DHT22;24821;51.988;6.020;2023-06-14T09:23:47;29.60;49.70
39067;DHT22;24821;51.988;6.020;2023-06-14T09:26:14;29.90;49.80
39067;DHT22;24821;51.988;6.020;2023-06-14T09:28:45;30.10;48.80
39067;DHT22;24821;51.988;6.020;2023-06-14T09:31:15;30.20;47.50
39067;DHT22;24821;51.988;6.020;2023-06-14T09:33:45;30.00;47.70
39067;DHT22;24821;51.988;6.020;2023-06-14T09:36:16;30.00;47.10
39067;DHT22;24821;51.988;6.020;2023-06-14T09:38:55;30.00;48.90
39067;DHT22;24821;51.988;6.020;2023-06-14T09:41:34;30.10;48.50
39067;DHT22;24821;51.988;6.020;2023-06-14T09:44:01;30.00;47.80
39067;DHT22;24821;51.988;6.020;2023-06-14T09:46:28;29.90;47.30
39067;DHT22;24821;51.988;6.020;2023-06-14T09:48:58;29.90;48.00
39067;DHT22;24821;51.988;6.020;2023-06-14T09:51:25;29.80;48.40
39067;DHT22;24821;51.988;6.020;2023-06-14T09:53:51;29.80;46.70
39067;DHT22;24821;51.988;6.020;2023-06-14T09:56:35;29.70;48.30
39067;DHT22;24821;51.988;6.020;2023-06-14T09:59:04;29.70;47.30
39067;DHT22;24821;51.988;6.020;2023-06-14T10:01:31;29.60;47.50
39067;DHT22;24821;51.988;6.020;2023-06-14T10:04:05;29.50;47.20
39067;DHT22;24821;51.988;6.020;2023-06-14T10:06:35;29.50;47.20
39067;DHT22;24821;51.988;6.020;2023-06-14T10:09:04;29.30;48.70
39067;DHT22;24821;51.988;6.020;2023-06-14T10:11:29;29.50;48.70
39067;DHT22;24821;51.988;6.020;2023-06-14T10:13:56;29.60;48.70
39067;DHT22;24821;51.988;6.020;2023-06-14T10:16:32;29.70;47.80
39067;DHT22;24821;51.988;6.020;2023-06-14T10:21:59;29.60;48.70
39067;DHT22;24821;51.988;6.020;2023-06-14T10:24:33;29.50;47.80
39067;DHT22;24821;51.988;6.020;2023-06-14T10:26:59;29.20;46.80
39067;DHT22;24821;51.988;6.020;2023-06-14T10:29:26;29.00;47.30
39067;DHT22;24821;51.988;6.020;2023-06-14T10:31:58;28.90;48.30
39067;DHT22;24821;51.988;6.020;2023-06-14T10:34:28;28.90;50.70
39067;DHT22;24821;51.988;6.020;2023-06-14T10:37:05;29.00;51.40
39067;DHT22;24821;51.988;6.020;2023-06-14T10:39:39;29.10;48.30
39067;DHT22;24821;51.988;6.020;2023-06-14T10:42:06;29.00;49.00
39067;DHT22;24821;51.988;6.020;2023-06-14T10:44:39;28.90;48.50
39067;DHT22;24821;51.988;6.020;2023-06-14T10:47:31;28.90;48.50
39067;DHT22;24821;51.988;6.020;2023-06-14T10:50:10;28.60;47.60
39067;DHT22;24821;51.988;6.020;2023-06-14T10:52:39;28.20;48.00
39067;DHT22;24821;51.988;6.020;2023-06-14T10:55:10;28.00;48.80
39067;DHT22;24821;51.988;6.020;2023-06-14T10:57:50;28.00;49.30
39067;DHT22;24821;51.988;6.020;2023-06-14T11:00:28;27.90;49.10
39067;DHT22;24821;51.988;6.020;2023-06-14T11:03:25;27.90;49.40
39067;DHT22;24821;51.988;6.020;2023-06-14T11:05:59;27.90;50.30
39067;DHT22;24821;51.988;6.020;2023-06-14T11:08:49;28.00;49.70
39067;DHT22;24821;51.988;6.020;2023-06-14T11:11:18;28.00;51.10
39067;DHT22;24821;51.988;6.020;2023-06-14T11:13:46;28.00;51.40
39067;DHT22;24821;51.988;6.020;2023-06-14T11:16:14;28.10;50.20
39067;DHT22;24821;51.988;6.020;2023-06-14T11:18:41;27.80;48.90
39067;DHT22;24821;51.988;6.020;2023-06-14T11:21:06;27.70;48.90
39067;DHT22;24821;51.988;6.020;2023-06-14T11:23:34;27.50;49.10
39067;DHT22;24821;51.988;6.020;2023-06-14T11:26:00;27.40;49.30
39067;DHT22;24821;51.988;6.020;2023-06-14T11:28:36;27.30;49.10
39067;DHT22;24821;51.988;6.020;2023-06-14T11:31:03;27.30;50.80
39067;DHT22;24821;51.988;6.020;2023-06-14T11:33:28;27.30;50.90
39067;DHT22;24821;51.988;6.020;2023-06-14T11:35:54;27.40;50.00
39067;DHT22;24821;51.988;6.020;2023-06-14T11:38:19;27.30;48.80
39067;DHT22;24821;51.988;6.020;2023-06-14T11:40:45;27.20;49.60
39067;DHT22;24821;51.988;6.020;2023-06-14T11:43:10;27.20;51.30
39067;DHT22;24821;51.988;6.020;2023-06-14T11:45:37;27.30;51.00
39067;DHT22;24821;51.988;6.020;2023-06-14T11:48:03;27.30;52.00
39067;DHT22;24821;51.988;6.020;2023-06-14T11:50:29;27.30;50.40
39067;DHT22;24821;51.988;6.020;2023-06-14T11:52:55;27.40;51.30
39067;DHT22;24821;51.988;6.020;2023-06-14T11:55:22;27.50;50.80
39067;DHT22;24821;51.988;6.020;2023-06-14T11:57:48;27.60;50.50
39067;DHT22;24821;51.988;6.020;2023-06-14T12:00:14;27.70;51.70
39067;DHT22;24821;51.988;6.020;2023-06-14T12:02:41;27.80;52.40
39067;DHT22;24821;51.988;6.020;2023-06-14T12:05:08;27.80;50.50
39067;DHT22;24821;51.988;6.020;2023-06-14T12:07:38;27.80;50.80
39067;DHT22;24821;51.988;6.020;2023-06-14T12:10:06;27.70;51.30
39067;DHT22;24821;51.988;6.020;2023-06-14T12:12:38;27.70;50.50
39067;DHT22;24821;51.988;6.020;2023-06-14T12:15:08;27.70;50.30
39067;DHT22;24821;51.988;6.020;2023-06-14T12:17:35;27.70;51.40
39067;DHT22;24821;51.988;6.020;2023-06-14T12:20:13;27.60;51.20
39067;DHT22;24821;51.988;6.020;2023-06-14T12:22:54;27.50;50.70
39067;DHT22;24821;51.988;6.020;2023-06-14T12:25:32;27.50;52.40
39067;DHT22;24821;51.988;6.020;2023-06-14T12:27:59;27.70;51.70
39067;DHT22;24821;51.988;6.020;2023-06-14T12:30:28;27.70;51.70
39067;DHT22;24821;51.988;6.020;2023-06-14T12:32:54;27.70;50.90
39067;DHT22;24821;51.988;6.020;2023-06-14T12:35:19;27.70;51.10
39067;DHT22;24821;51.988;6.020;2023-06-14T12:37:46;27.80;51.60
39067;DHT22;24821;51.988;6.020;2023-06-14T12:40:12;27.70;51.30
39067;DHT22;24821;51.988;6.020;2023-06-14T12:42:38;27.60;49.80
39067;DHT22;24821;51.988;6.020;2023-06-14T12:45:03;27.50;52.20
39067;DHT22;24821;51.988;6.020;2023-06-14T12:47:29;27.60;52.10
39067;DHT22;24821;51.988;6.020;2023-06-14T12:49:55;27.70;51.60
39067;DHT22;24821;51.988;6.020;2023-06-14T12:52:20;27.70;50.80
39067;DHT22;24821;51.988;6.020;2023-06-14T12:54:46;27.70;51.10
39067;DHT22;24821;51.988;6.020;2023-06-14T12:57:11;27.70;51.60
39067;DHT22;24821;51.988;6.020;2023-06-14T12:59:37;27.70;52.50
39067;DHT22;24821;51.988;6.020;2023-06-14T13:02:18;27.80;50.70
39067;DHT22;24821;51.988;6.020;2023-06-14T13:04:44;27.90;51.30
39067;DHT22;24821;51.988;6.020;2023-06-14T13:07:09;27.90;49.70
39067;DHT22;24821;51.988;6.020;2023-06-14T13:09:36;27.70;49.80
39067;DHT22;24821;51.988;6.020;2023-06-14T13:12:02;27.60;51.70
39067;DHT22;24821;51.988;6.020;2023-06-14T13:14:28;27.70;51.00
39067;DHT22;24821;51.988;6.020;2023-06-14T13:16:53;27.80;50.90
39067;DHT22;24821;51.988;6.020;2023-06-14T13:19:19;27.90;48.90
39067;DHT22;24821;51.988;6.020;2023-06-14T13:21:45;27.90;48.60
39067;DHT22;24821;51.988;6.020;2023-06-14T13:24:10;27.90;50.10
39067;DHT22;24821;51.988;6.020;2023-06-14T13:26:36;27.90;50.50
39067;DHT22;24821;51.988;6.020;2023-06-14T13:29:01;27.90;51.40
39067;DHT22;24821;51.988;6.020;2023-06-14T13:31:27;28.00;49.70
39067;DHT22;24821;51.988;6.020;2023-06-14T13:33:52;28.00;49.70
39067;DHT22;24821;51.988;6.020;2023-06-14T13:36:18;28.00;49.90
39067;DHT22;24821;51.988;6.020;2023-06-14T13:38:44;28.00;49.70
39067;DHT22;24821;51.988;6.020;2023-06-14T13:41:09;28.10;48.80
39067;DHT22;24821;51.988;6.020;2023-06-14T13:43:35;28.00;48.70
39067;DHT22;24821;51.988;6.020;2023-06-14T13:46:00;28.00;50.50
39067;DHT22;24821;51.988;6.020;2023-06-14T13:48:26;28.10;49.80
39067;DHT22;24821;51.988;6.020;2023-06-14T13:50:52;28.20;49.50
39067;DHT22;24821;51.988;6.020;2023-06-14T13:53:17;28.30;49.90
39067;DHT22;24821;51.988;6.020;2023-06-14T13:55:43;28.30;49.70
39067;DHT22;24821;51.988;6.020;2023-06-14T13:58:09;28.30;50.90
39067;DHT22;24821;51.988;6.020;2023-06-14T14:00:34;28.30;50.70
39067;DHT22;24821;51.988;6.020;2023-06-14T14:03:03;28.30;49.20
39067;DHT22;24821;51.988;6.020;2023-06-14T14:05:29;28.30;50.60
39067;DHT22;24821;51.988;6.020;2023-06-14T14:07:56;28.30;49.00
39067;DHT22;24821;51.988;6.020;2023-06-14T14:10:23;28.20;48.50
39067;DHT22;24821;51.988;6.020;2023-06-14T14:12:50;28.00;48.70
39067;DHT22;24821;51.988;6.020;2023-06-14T14:15:16;28.00;48.90
39067;DHT22;24821;51.988;6.020;2023-06-14T14:17:42;27.90;49.70
39067;DHT22;24821;51.988;6.020;2023-06-14T14:20:08;28.00;49.30
39067;DHT22;24821;51.988;6.020;2023-06-14T14:22:33;28.00;49.00
39067;DHT22;24821;51.988;6.020;2023-06-14T14:24:59;27.90;49.40
39067;DHT22;24821;51.988;6.020;2023-06-14T14:27:25;27.90;48.80
39067;DHT22;24821;51.988;6.020;2023-06-14T14:29:50;27.90;49.00
39067;DHT22;24821;51.988;6.020;2023-06-14T14:32:16;27.90;50.20
39067;DHT22;24821;51.988;6.020;2023-06-14T14:34:41;28.00;51.20
39067;DHT22;24821;51.988;6.020;2023-06-14T14:37:07;28.10;50.10
39067;DHT22;24821;51.988;6.020;2023-06-14T14:39:33;28.10;50.10
39067;DHT22;24821;51.988;6.020;2023-06-14T14:41:58;28.20;50.30
39067;DHT22;24821;51.988;6.020;2023-06-14T14:44:24;28.30;50.70
39067;DHT22;24821;51.988;6.020;2023-06-14T14:46:49;28.30;49.50
39067;DHT22;24821;51.988;6.020;2023-06-14T14:49:15;28.10;49.90
39067;DHT22;24821;51.988;6.020;2023-06-14T14:51:40;28.00;49.30
39067;DHT22;24821;51.988;6.020;2023-06-14T14:54:06;27.90;48.80
39067;DHT22;24821;51.988;6.020;2023-06-14T14:56:32;27.90;48.40
39067;DHT22;24821;51.988;6.020;2023-06-14T14:58:58;27.80;49.40
39067;DHT22;24821;51.988;6.020;2023-06-14T15:01:23;27.80;50.50
39067;DHT22;24821;51.988;6.020;2023-06-14T15:03:49;27.70;50.80
39067;DHT22;24821;51.988;6.020;2023-06-14T15:06:14;27.70;51.20
39067;DHT22;24821;51.988;6.020;2023-06-14T15:08:40;27.70;51.40
39067;DHT22;24821;51.988;6.020;2023-06-14T15:11:06;27.90;51.30
39067;DHT22;24821;51.988;6.020;2023-06-14T15:13:32;27.90;49.80
39067;DHT22;24821;51.988;6.020;2023-06-14T15:15:57;27.90;50.60
39067;DHT22;24821;51.988;6.020;2023-06-14T15:18:23;27.90;49.80
39067;DHT22;24821;51.988;6.020;2023-06-14T15:20:49;27.90;49.10
39067;DHT22;24821;51.988;6.020;2023-06-14T15:23:15;28.00;49.70
39067;DHT22;24821;51.988;6.020;2023-06-14T15:25:45;28.00;50.60
39067;DHT22;24821;51.988;6.020;2023-06-14T15:28:12;28.10;50.00
39067;DHT22;24821;51.988;6.020;2023-06-14T15:30:38;28.10;50.00
39067;DHT22;24821;51.988;6.020;2023-06-14T15:33:03;28.10;49.70
39067;DHT22;24821;51.988;6.020;2023-06-14T15:35:29;28.00;51.00
39067;DHT22;24821;51.988;6.020;2023-06-14T15:37:54;28.00;51.00